sensor_id;sensor_type;location;lat;lon;timestamp;pressure;altitude;pressure_sealevel;temperature;humidity
73429;BME280;61643;49.564;17.412;2022-12-07T00:01:17;97864.56;;;2.19;100.00
73429;BME280;61643;49.564;17.412;2022-12-07T00:03:45;97864.97;;;2.16;100.00
73429;BME280;61643;49.564;17.412;2022-12-07T00:06:12;97862.91;;;2.18;100.00
73429;BME280;61643;49.564;17.412;2022-12-07T00:08:38;97856.41;;;2.14;100.00
73429;BME280;61643;49.564;17.412;2022-12-07T00:11:05;97862.09;;;2.17;100.00
73429;BME280;61643;49.564;17.412;2022-12-07T00:13:32;97855.19;;;2.16;100.00
73429;BME280;61643;49.564;17.412;2022-12-07T00:16:03;97867.00;;;2.20;100.00
73429;BME280;61643;49.564;17.412;2022-12-07T00:18:29;97865.97;;;2.21;100.00
73429;BME280;61643;49.564;17.412;2022-12-07T00:21:02;97858.81;;;2.22;100.00
73429;BME280;61643;49.564;17.412;2022-12-07T00:23:27;97860.22;;;2.24;100.00
73429;BME280;61643;49.564;17.412;2022-12-07T00:25:53;97861.28;;;2.23;100.00
73429;BME280;61643;49.564;17.412;2022-12-07T00:28:18;97853.91;;;2.25;100.00
73429;BME280;61643;49.564;17.412;2022-12-07T00:30:43;97860.84;;;2.26;100.00
73429;BME280;61643;49.564;17.412;2022-12-07T00:33:09;97863.69;;;2.25;100.00
73429;BME280;61643;49.564;17.412;2022-12-07T00:35:34;97870.06;;;2.24;100.00
73429;BME280;61643;49.564;17.412;2022-12-07T00:37:59;97872.72;;;2.24;100.00
73429;BME280;61643;49.564;17.412;2022-12-07T00:40:25;97871.28;;;2.21;100.00
73429;BME280;61643;49.564;17.412;2022-12-07T00:42:50;97870.84;;;2.24;100.00
73429;BME280;61643;49.564;17.412;2022-12-07T00:45:15;97868.19;;;2.24;100.00
73429;BME280;61643;49.564;17.412;2022-12-07T00:47:41;97869.41;;;2.28;100.00
73429;BME280;61643;49.564;17.412;2022-12-07T00:50:06;97870.03;;;2.30;100.00
73429;BME280;61643;49.564;17.412;2022-12-07T00:52:32;97869.63;;;2.27;100.00
73429;BME280;61643;49.564;17.412;2022-12-07T00:54:57;97869.41;;;2.28;100.00
73429;BME280;61643;49.564;17.412;2022-12-07T00:57:22;97872.31;;;2.20;100.00
73429;BME280;61643;49.564;17.412;2022-12-07T00:59:48;97864.16;;;2.15;100.00
73429;BME280;61643;49.564;17.412;2022-12-07T01:02:13;97870.69;;;2.19;100.00
73429;BME280;61643;49.564;17.412;2022-12-07T01:04:39;97869.91;;;2.12;100.00
73429;BME280;61643;49.564;17.412;2022-12-07T01:07:04;97864.78;;;2.11;100.00
73429;BME280;61643;49.564;17.412;2022-12-07T01:09:29;97863.75;;;2.18;100.00
73429;BME280;61643;49.564;17.412;2022-12-07T01:11:55;97862.56;;;2.08;100.00
73429;BME280;61643;49.564;17.412;2022-12-07T01:14:20;97867.91;;;2.01;100.00
73429;BME280;61643;49.564;17.412;2022-12-07T01:16:45;97859.75;;;2.03;100.00
73429;BME280;61643;49.564;17.412;2022-12-07T01:19:11;97860.53;;;2.03;100.00
73429;BME280;61643;49.564;17.412;2022-12-07T01:21:38;97865.66;;;2.05;100.00
73429;BME280;61643;49.564;17.412;2022-12-07T01:24:05;97864.63;;;2.06;100.00
73429;BME280;61643;49.564;17.412;2022-12-07T01:26:32;97866.47;;;2.05;100.00
73429;BME280;61643;49.564;17.412;2022-12-07T01:28:57;97868.75;;;1.95;100.00
73429;BME280;61643;49.564;17.412;2022-12-07T01:31:37;97866.69;;;1.97;100.00
73429;BME280;61643;49.564;17.412;2022-12-07T01:34:02;97872.19;;;2.02;100.00
73429;BME280;61643;49.564;17.412;2022-12-07T01:36:34;97864.25;;;2.02;100.00
73429;BME280;61643;49.564;17.412;2022-12-07T01:39:03;97856.00;;;2.10;100.00
73429;BME280;61643;49.564;17.412;2022-12-07T01:41:34;97855.63;;;2.07;100.00
73429;BME280;61643;49.564;17.412;2022-12-07T01:46:57;97848.66;;;2.12;100.00
73429;BME280;61643;49.564;17.412;2022-12-07T01:49:40;97852.13;;;2.13;100.00
73429;BME280;61643;49.564;17.412;2022-12-07T01:54:37;97847.81;;;2.18;100.00
73429;BME280;61643;49.564;17.412;2022-12-07T01:57:03;97843.72;;;2.22;100.00
73429;BME280;61643;49.564;17.412;2022-12-07T01:59:31;97853.91;;;2.25;100.00
73429;BME280;61643;49.564;17.412;2022-12-07T02:01:57;97843.91;;;2.27;100.00
73429;BME280;61643;49.564;17.412;2022-12-07T02:04:22;97847.56;;;2.26;100.00
73429;BME280;61643;49.564;17.412;2022-12-07T02:06:48;97845.78;;;2.20;100.00
73429;BME280;61643;49.564;17.412;2022-12-07T02:09:14;97844.75;;;2.15;100.00
73429;BME280;61643;49.564;17.412;2022-12-07T02:11:40;97842.97;;;2.09;100.00
73429;BME280;61643;49.564;17.412;2022-12-07T02:14:06;97838.47;;;2.09;100.00
73429;BME280;61643;49.564;17.412;2022-12-07T02:35:09;97845.41;;;2.10;100.00
73429;BME280;61643;49.564;17.412;2022-12-07T02:37:42;97845.41;;;2.10;100.00
73429;BME280;61643;49.564;17.412;2022-12-07T02:40:17;97836.41;;;2.11;100.00
73429;BME280;61643;49.564;17.412;2022-12-07T02:42:47;97842.53;;;2.12;100.00
73429;BME280;61643;49.564;17.412;2022-12-07T02:45:17;97834.75;;;2.17;100.00
73429;BME280;61643;49.564;17.412;2022-12-07T02:47:46;97838.22;;;2.17;100.00
73429;BME280;61643;49.564;17.412;2022-12-07T02:50:13;97833.31;;;2.14;100.00
73429;BME280;61643;49.564;17.412;2022-12-07T02:52:39;97836.75;;;2.21;100.00
73429;BME280;61643;49.564;17.412;2022-12-07T02:55:05;97837.00;;;2.20;100.00
73429;BME280;61643;49.564;17.412;2022-12-07T02:58:03;97836.75;;;2.21;100.00
73429;BME280;61643;49.564;17.412;2022-12-07T03:00:41;97829.22;;;2.18;100.00
73429;BME280;61643;49.564;17.412;2022-12-07T03:03:11;97832.34;;;2.09;99.82
73429;BME280;61643;49.564;17.412;2022-12-07T03:05:58;97838.69;;;2.08;100.00
73429;BME280;61643;49.564;17.412;2022-12-07T03:08:50;97840.13;;;2.04;100.00
73429;BME280;61643;49.564;17.412;2022-12-07T03:11:25;97838.91;;;2.06;99.35
73429;BME280;61643;49.564;17.412;2022-12-07T03:14:16;97831.78;;;2.00;100.00
73429;BME280;61643;49.564;17.412;2022-12-07T03:17:06;97838.28;;;2.04;100.00
73429;BME280;61643;49.564;17.412;2022-12-07T03:19:36;97834.00;;;2.03;100.00
73429;BME280;61643;49.564;17.412;2022-12-07T03:22:13;97829.13;;;2.00;100.00
73429;BME280;61643;49.564;17.412;2022-12-07T03:24:45;97827.09;;;2.02;100.00
73429;BME280;61643;49.564;17.412;2022-12-07T03:27:24;97835.25;;;2.01;99.99
73429;BME280;61643;49.564;17.412;2022-12-07T03:29:54;97838.09;;;1.99;99.42
73429;BME280;61643;49.564;17.412;2022-12-07T03:35:08;97834.25;;;1.88;99.42
73429;BME280;61643;49.564;17.412;2022-12-07T03:40:07;97835.50;;;1.86;98.77
73429;BME280;61643;49.564;17.412;2022-12-07T03:42:37;97834.50;;;1.87;99.22
73429;BME280;61643;49.564;17.412;2022-12-07T03:45:03;97829.22;;;1.80;99.84
73429;BME280;61643;49.564;17.412;2022-12-07T03:47:34;97829.22;;;1.80;99.79
73429;BME280;61643;49.564;17.412;2022-12-07T03:52:47;97834.13;;;1.77;100.00
73429;BME280;61643;49.564;17.412;2022-12-07T03:55:23;97833.50;;;1.75;100.00
73429;BME280;61643;49.564;17.412;2022-12-07T03:57:53;97838.84;;;1.68;99.65
73429;BME280;61643;49.564;17.412;2022-12-07T04:00:20;97842.47;;;1.74;99.16
73429;BME280;61643;49.564;17.412;2022-12-07T04:02:46;97838.00;;;1.74;98.92
73429;BME280;61643;49.564;17.412;2022-12-07T04:05:12;97842.72;;;1.72;98.43
73429;BME280;61643;49.564;17.412;2022-12-07T04:07:38;97835.38;;;1.68;98.95
73429;BME280;61643;49.564;17.412;2022-12-07T04:10:04;97833.75;;;1.67;98.43
73429;BME280;61643;49.564;17.412;2022-12-07T04:12:29;97826.59;;;1.67;99.04
73429;BME280;61643;49.564;17.412;2022-12-07T04:14:55;97826.81;;;1.66;99.20
73429;BME280;61643;49.564;17.412;2022-12-07T04:17:20;97836.63;;;1.65;98.95
73429;BME280;61643;49.564;17.412;2022-12-07T04:19:46;97839.28;;;1.65;98.59
73429;BME280;61643;49.564;17.412;2022-12-07T04:22:11;97841.69;;;1.67;98.65
73429;BME280;61643;49.564;17.412;2022-12-07T04:24:36;97832.56;;;1.63;99.97
73429;BME280;61643;49.564;17.412;2022-12-07T04:27:02;97825.19;;;1.65;99.02
73429;BME280;61643;49.564;17.412;2022-12-07T04:29:28;97830.50;;;1.65;100.00
73429;BME280;61643;49.564;17.412;2022-12-07T04:31:53;97833.16;;;1.65;99.44
73429;BME280;61643;49.564;17.412;2022-12-07T04:34:19;97836.38;;;1.67;100.00
73429;BME280;61643;49.564;17.412;2022-12-07T04:36:46;97831.13;;;1.60;100.00
73429;BME280;61643;49.564;17.412;2022-12-07T04:39:20;97831.09;;;1.67;100.00
73429;BME280;61643;49.564;17.412;2022-12-07T04:41:45;97829.28;;;1.61;98.55
73429;BME280;61643;49.564;17.412;2022-12-07T04:44:12;97834.81;;;1.59;99.13
73429;BME280;61643;49.564;17.412;2022-12-07T04:46:39;97824.41;;;1.58;98.81
73429;BME280;61643;49.564;17.412;2022-12-07T04:49:04;97826.19;;;1.64;100.00
73429;BME280;61643;49.564;17.412;2022-12-07T04:51:30;97827.88;;;1.58;99.35
73429;BME280;61643;49.564;17.412;2022-12-07T04:53:56;97820.94;;;1.57;99.85
73429;BME280;61643;49.564;17.412;2022-12-07T04:56:22;97827.66;;;1.60;99.40
73429;BME280;61643;49.564;17.412;2022-12-07T04:58:48;97826.84;;;1.53;99.66
73429;BME280;61643;49.564;17.412;2022-12-07T05:01:15;97821.75;;;1.58;99.84
73429;BME280;61643;49.564;17.412;2022-12-07T05:03:41;97820.72;;;1.52;100.00
73429;BME280;61643;49.564;17.412;2022-12-07T05:06:08;97824.59;;;1.63;100.00
73429;BME280;61643;49.564;17.412;2022-12-07T05:08:34;97827.84;;;1.65;100.00
73429;BME280;61643;49.564;17.412;2022-12-07T05:11:00;97816.00;;;1.61;100.00
73429;BME280;61643;49.564;17.412;2022-12-07T05:13:25;97818.47;;;1.62;100.00
73429;BME280;61643;49.564;17.412;2022-12-07T05:15:51;97825.59;;;1.62;100.00
73429;BME280;61643;49.564;17.412;2022-12-07T05:18:16;97821.94;;;1.63;100.00
73429;BME280;61643;49.564;17.412;2022-12-07T05:20:42;97815.19;;;1.60;100.00
73429;BME280;61643;49.564;17.412;2022-12-07T05:23:07;97825.00;;;1.66;99.54
73429;BME280;61643;49.564;17.412;2022-12-07T05:25:33;97824.16;;;1.72;99.10
73429;BME280;61643;49.564;17.412;2022-12-07T05:27:59;97821.53;;;1.66;99.82
73429;BME280;61643;49.564;17.412;2022-12-07T05:30:25;97826.78;;;1.72;98.65
73429;BME280;61643;49.564;17.412;2022-12-07T05:32:51;97823.75;;;1.69;98.31
73429;BME280;61643;49.564;17.412;2022-12-07T05:35:17;97826.19;;;1.70;98.34
73429;BME280;61643;49.564;17.412;2022-12-07T05:37:43;97833.97;;;1.65;98.06
73429;BME280;61643;49.564;17.412;2022-12-07T05:40:09;97830.88;;;1.68;98.58
73429;BME280;61643;49.564;17.412;2022-12-07T05:42:35;97837.44;;;1.66;98.59
73429;BME280;61643;49.564;17.412;2022-12-07T05:45:00;97837.44;;;1.66;99.18
73429;BME280;61643;49.564;17.412;2022-12-07T05:47:26;97846.59;;;1.70;98.31
73429;BME280;61643;49.564;17.412;2022-12-07T05:49:51;97840.47;;;1.76;98.54
73429;BME280;61643;49.564;17.412;2022-12-07T05:52:17;97848.81;;;1.79;98.92
73429;BME280;61643;49.564;17.412;2022-12-07T05:54:42;97845.13;;;1.74;99.44
73429;BME280;61643;49.564;17.412;2022-12-07T05:57:08;97851.88;;;1.76;99.00
73429;BME280;61643;49.564;17.412;2022-12-07T05:59:33;97851.88;;;1.76;98.83
73429;BME280;61643;49.564;17.412;2022-12-07T06:02:09;97856.19;;;1.71;98.33
73429;BME280;61643;49.564;17.412;2022-12-07T06:04:41;97860.66;;;1.77;97.55
73429;BME280;61643;49.564;17.412;2022-12-07T06:07:07;97861.44;;;1.77;98.43
73429;BME280;61643;49.564;17.412;2022-12-07T06:09:33;97859.66;;;1.71;99.03
73429;BME280;61643;49.564;17.412;2022-12-07T06:11:59;97856.56;;;1.74;98.85
73429;BME280;61643;49.564;17.412;2022-12-07T06:14:44;97872.50;;;1.81;99.44
73429;BME280;61643;49.564;17.412;2022-12-07T06:17:09;97863.09;;;1.78;98.00
73429;BME280;61643;49.564;17.412;2022-12-07T06:19:35;97858.22;;;1.75;99.35
73429;BME280;61643;49.564;17.412;2022-12-07T06:22:01;97865.19;;;1.70;98.47
73429;BME280;61643;49.564;17.412;2022-12-07T06:24:27;97864.78;;;1.66;98.63
73429;BME280;61643;49.564;17.412;2022-12-07T06:26:53;97870.47;;;1.63;99.63
73429;BME280;61643;49.564;17.412;2022-12-07T06:29:18;97866.38;;;1.67;100.00
73429;BME280;61643;49.564;17.412;2022-12-07T06:31:44;97863.97;;;1.66;99.11
73429;BME280;61643;49.564;17.412;2022-12-07T06:34:15;97863.31;;;1.70;100.00
73429;BME280;61643;49.564;17.412;2022-12-07T06:36:41;97871.69;;;1.67;100.00
73429;BME280;61643;49.564;17.412;2022-12-07T06:39:06;97870.88;;;1.67;100.00
73429;BME280;61643;49.564;17.412;2022-12-07T06:41:35;97869.25;;;1.66;99.11
73429;BME280;61643;49.564;17.412;2022-12-07T06:44:01;97865.19;;;1.70;99.25
73429;BME280;61643;49.564;17.412;2022-12-07T06:46:27;97869.66;;;1.69;100.00
73429;BME280;61643;49.564;17.412;2022-12-07T06:48:52;97875.56;;;1.71;99.88
73429;BME280;61643;49.564;17.412;2022-12-07T06:51:18;97875.13;;;1.74;100.00
73429;BME280;61643;49.564;17.412;2022-12-07T06:53:44;97876.34;;;1.78;99.34
73429;BME280;61643;49.564;17.412;2022-12-07T06:56:09;97874.53;;;1.72;100.00
73429;BME280;61643;49.564;17.412;2022-12-07T06:58:34;97878.03;;;1.73;98.08
73429;BME280;61643;49.564;17.412;2022-12-07T07:01:00;97880.22;;;1.82;99.46
73429;BME280;61643;49.564;17.412;2022-12-07T07:03:25;97879.41;;;1.82;100.00
73429;BME280;61643;49.564;17.412;2022-12-07T07:05:51;97887.13;;;1.90;99.38
73429;BME280;61643;49.564;17.412;2022-12-07T07:08:16;97879.78;;;1.92;99.22
73429;BME280;61643;49.564;17.412;2022-12-07T07:10:42;97869.97;;;1.92;99.24
73429;BME280;61643;49.564;17.412;2022-12-07T07:13:07;97872.25;;;1.82;99.75
73429;BME280;61643;49.564;17.412;2022-12-07T07:15:33;97872.47;;;1.87;100.00
73429;BME280;61643;49.564;17.412;2022-12-07T07:17:59;97867.59;;;1.84;99.12
73429;BME280;61643;49.564;17.412;2022-12-07T07:20:25;97876.53;;;1.90;99.02
73429;BME280;61643;49.564;17.412;2022-12-07T07:22:50;97872.47;;;1.87;99.05
73429;BME280;61643;49.564;17.412;2022-12-07T07:25:18;97867.97;;;1.88;99.33
73429;BME280;61643;49.564;17.412;2022-12-07T07:27:44;97872.63;;;1.92;99.15
73429;BME280;61643;49.564;17.412;2022-12-07T07:30:09;97874.84;;;1.95;98.22
73429;BME280;61643;49.564;17.412;2022-12-07T07:32:35;97870.75;;;1.99;97.99
73429;BME280;61643;49.564;17.412;2022-12-07T07:35:00;97874.44;;;2.05;97.41
73429;BME280;61643;49.564;17.412;2022-12-07T07:37:25;97883.59;;;2.09;97.40
73429;BME280;61643;49.564;17.412;2022-12-07T07:39:51;97876.03;;;2.13;97.33
73429;BME280;61643;49.564;17.412;2022-12-07T07:42:16;97874.19;;;2.13;96.70
73429;BME280;61643;49.564;17.412;2022-12-07T07:44:41;97872.31;;;2.14;96.65
73429;BME280;61643;49.564;17.412;2022-12-07T07:47:07;97877.25;;;2.17;97.16
73429;BME280;61643;49.564;17.412;2022-12-07T07:49:32;97870.69;;;2.19;96.66
73429;BME280;61643;49.564;17.412;2022-12-07T07:51:57;97874.56;;;2.23;97.01
73429;BME280;61643;49.564;17.412;2022-12-07T07:54:23;97868.81;;;2.26;96.57
73429;BME280;61643;49.564;17.412;2022-12-07T07:56:48;97877.16;;;2.30;96.54
73429;BME280;61643;49.564;17.412;2022-12-07T07:59:14;97875.09;;;2.32;96.48
73429;BME280;61643;49.564;17.412;2022-12-07T08:01:40;97876.31;;;2.36;97.10
73429;BME280;61643;49.564;17.412;2022-12-07T08:04:05;97876.09;;;2.37;96.82
73429;BME280;61643;49.564;17.412;2022-12-07T08:06:31;97869.00;;;2.31;97.14
73429;BME280;61643;49.564;17.412;2022-12-07T08:08:56;97878.91;;;2.42;97.20
73429;BME280;61643;49.564;17.412;2022-12-07T08:11:23;97886.50;;;2.45;97.51
73429;BME280;61643;49.564;17.412;2022-12-07T08:13:49;97876.25;;;2.42;96.60
73429;BME280;61643;49.564;17.412;2022-12-07T08:16:14;97886.50;;;2.45;96.95
73429;BME280;61643;49.564;17.412;2022-12-07T08:18:41;97888.31;;;2.45;96.38
73429;BME280;61643;49.564;17.412;2022-12-07T08:21:08;97884.84;;;2.44;96.85
73429;BME280;61643;49.564;17.412;2022-12-07T08:23:34;97881.19;;;2.45;96.45
73429;BME280;61643;49.564;17.412;2022-12-07T08:26:05;97881.56;;;2.49;96.31
73429;BME280;61643;49.564;17.412;2022-12-07T08:28:31;97891.38;;;2.48;95.71
73429;BME280;61643;49.564;17.412;2022-12-07T08:31:00;97884.00;;;2.51;95.38
73429;BME280;61643;49.564;17.412;2022-12-07T08:33:26;97876.25;;;2.49;95.48
73429;BME280;61643;49.564;17.412;2022-12-07T08:35:51;97887.41;;;2.58;95.27
73429;BME280;61643;49.564;17.412;2022-12-07T08:38:16;97885.38;;;2.60;95.90
73429;BME280;61643;49.564;17.412;2022-12-07T08:40:42;97883.75;;;2.59;96.01
73429;BME280;61643;49.564;17.412;2022-12-07T08:43:07;97888.84;;;2.60;95.69
73429;BME280;61643;49.564;17.412;2022-12-07T08:45:32;97896.19;;;2.58;95.86
73429;BME280;61643;49.564;17.412;2022-12-07T08:48:08;97891.28;;;2.62;96.03
73429;BME280;61643;49.564;17.412;2022-12-07T08:50:36;97891.50;;;2.60;96.56
73429;BME280;61643;49.564;17.412;2022-12-07T08:53:03;97884.19;;;2.56;95.50
73429;BME280;61643;49.564;17.412;2022-12-07T08:55:30;97897.63;;;2.61;95.66
73429;BME280;61643;49.564;17.412;2022-12-07T08:57:58;97892.44;;;2.72;96.04
73429;BME280;61643;49.564;17.412;2022-12-07T09:00:24;97887.94;;;2.73;96.17
73429;BME280;61643;49.564;17.412;2022-12-07T09:02:49;97890.41;;;2.74;95.88
73429;BME280;61643;49.564;17.412;2022-12-07T09:05:15;97889.56;;;2.74;95.88
73429;BME280;61643;49.564;17.412;2022-12-07T09:07:42;97882.19;;;2.76;95.44
73429;BME280;61643;49.564;17.412;2022-12-07T09:10:08;97884.41;;;2.79;95.22
73429;BME280;61643;49.564;17.412;2022-12-07T09:12:33;97885.63;;;2.83;95.40
73429;BME280;61643;49.564;17.412;2022-12-07T09:14:59;97881.75;;;2.79;96.29
73429;BME280;61643;49.564;17.412;2022-12-07T09:17:26;97873.38;;;2.82;95.85
73429;BME280;61643;49.564;17.412;2022-12-07T09:19:51;97888.06;;;2.84;95.71
73429;BME280;61643;49.564;17.412;2022-12-07T09:22:16;97875.41;;;2.80;95.61
73429;BME280;61643;49.564;17.412;2022-12-07T09:24:42;97870.50;;;2.83;95.86
73429;BME280;61643;49.564;17.412;2022-12-07T09:27:08;97867.81;;;2.83;96.94
73429;BME280;61643;49.564;17.412;2022-12-07T09:29:33;97866.16;;;2.89;96.46
73429;BME280;61643;49.564;17.412;2022-12-07T09:31:59;97871.03;;;2.92;95.54
73429;BME280;61643;49.564;17.412;2022-12-07T09:34:24;97868.81;;;2.89;94.47
73429;BME280;61643;49.564;17.412;2022-12-07T09:36:51;97862.47;;;2.90;94.51
73429;BME280;61643;49.564;17.412;2022-12-07T09:39:16;97873.31;;;2.88;93.50
73429;BME280;61643;49.564;17.412;2022-12-07T09:41:43;97862.47;;;2.90;93.86
73429;BME280;61643;49.564;17.412;2022-12-07T09:44:20;97857.13;;;2.90;94.29
73429;BME280;61643;49.564;17.412;2022-12-07T09:46:46;97861.63;;;2.89;94.58
73429;BME280;61643;49.564;17.412;2022-12-07T09:49:16;97856.75;;;2.86;94.46
73429;BME280;61643;49.564;17.412;2022-12-07T09:51:43;97851.88;;;2.83;95.50
73429;BME280;61643;49.564;17.412;2022-12-07T09:54:15;97842.28;;;2.82;95.15
73429;BME280;61643;49.564;17.412;2022-12-07T09:56:42;97844.56;;;2.79;94.70
73429;BME280;61643;49.564;17.412;2022-12-07T09:59:13;97848.63;;;2.81;93.97
73429;BME280;61643;49.564;17.412;2022-12-07T10:01:40;97839.63;;;2.82;93.88
73429;BME280;61643;49.564;17.412;2022-12-07T10:04:13;97848.09;;;2.97;93.58
73429;BME280;61643;49.564;17.412;2022-12-07T10:06:41;97839.66;;;3.01;94.01
73429;BME280;61643;49.564;17.412;2022-12-07T10:09:11;97834.97;;;3.03;93.27
73429;BME280;61643;49.564;17.412;2022-12-07T10:12:07;97829.28;;;2.99;93.43
73429;BME280;61643;49.564;17.412;2022-12-07T10:14:36;97834.34;;;3.01;93.64
73429;BME280;61643;49.564;17.412;2022-12-07T10:17:02;97825.59;;;3.00;94.02
73429;BME280;61643;49.564;17.412;2022-12-07T10:19:30;97828.25;;;3.00;93.86
73429;BME280;61643;49.564;17.412;2022-12-07T10:22:14;97830.09;;;3.00;93.81
73429;BME280;61643;49.564;17.412;2022-12-07T10:24:41;97829.84;;;3.01;94.05
73429;BME280;61643;49.564;17.412;2022-12-07T10:27:29;97824.78;;;3.00;94.26
73429;BME280;61643;49.564;17.412;2022-12-07T10:29:57;97825.59;;;3.00;94.13
73429;BME280;61643;49.564;17.412;2022-12-07T10:32:32;97826.19;;;3.02;94.28
73429;BME280;61643;49.564;17.412;2022-12-07T10:35:31;97823.06;;;3.05;93.61
73429;BME280;61643;49.564;17.412;2022-12-07T10:37:59;97820.22;;;3.07;92.78
73429;BME280;61643;49.564;17.412;2022-12-07T10:40:26;97821.41;;;3.11;93.21
73429;BME280;61643;49.564;17.412;2022-12-07T10:43:21;97819.78;;;3.10;92.54
73429;BME280;61643;49.564;17.412;2022-12-07T10:48:33;97817.31;;;3.08;92.96
73429;BME280;61643;49.564;17.412;2022-12-07T11:05:06;97829.91;;;3.19;91.38
73429;BME280;61643;49.564;17.412;2022-12-07T11:20:58;97806.72;;;3.81;85.63
73429;BME280;61643;49.564;17.412;2022-12-07T11:31:34;97823.97;;;2.99;81.71
73429;BME280;61643;49.564;17.412;2022-12-07T11:36:56;97805.88;;;2.83;80.72
73429;BME280;61643;49.564;17.412;2022-12-07T11:41:49;97803.53;;;2.75;80.87
73429;BME280;61643;49.564;17.412;2022-12-07T11:44:48;97804.69;;;2.79;79.27
73429;BME280;61643;49.564;17.412;2022-12-07T11:47:38;97803.22;;;2.83;75.43
73429;BME280;61643;49.564;17.412;2022-12-07T11:53:00;97802.91;;;2.97;74.81
73429;BME280;61643;49.564;17.412;2022-12-07T11:55:35;97802.09;;;3.15;74.67
73429;BME280;61643;49.564;17.412;2022-12-07T12:00:37;97806.34;;;3.23;75.69
73429;BME280;61643;49.564;17.412;2022-12-07T12:03:10;97811.44;;;3.24;75.01
73429;BME280;61643;49.564;17.412;2022-12-07T12:05:38;97816.88;;;3.11;75.44
73429;BME280;61643;49.564;17.412;2022-12-07T12:10:55;97805.06;;;3.07;74.28
73429;BME280;61643;49.564;17.412;2022-12-07T12:18:59;97809.13;;;3.10;75.37
73429;BME280;61643;49.564;17.412;2022-12-07T12:21:29;97806.69;;;3.08;75.35
73429;BME280;61643;49.564;17.412;2022-12-07T12:24:17;97817.94;;;3.10;75.86
73429;BME280;61643;49.564;17.412;2022-12-07T12:26:53;97799.59;;;3.02;75.34
73429;BME280;61643;49.564;17.412;2022-12-07T12:29:27;97781.50;;;2.92;74.19
73429;BME280;61643;49.564;17.412;2022-12-07T12:32:08;97788.22;;;2.95;75.46
73429;BME280;61643;49.564;17.412;2022-12-07T12:34:58;97784.53;;;2.96;78.47
73429;BME280;61643;49.564;17.412;2022-12-07T12:42:53;97786.56;;;2.94;78.13
73429;BME280;61643;49.564;17.412;2022-12-07T12:45:23;97783.78;;;2.89;78.70
73429;BME280;61643;49.564;17.412;2022-12-07T12:48:35;97792.31;;;2.91;81.15
73429;BME280;61643;49.564;17.412;2022-12-07T12:51:36;97786.19;;;2.90;80.10
73429;BME280;61643;49.564;17.412;2022-12-07T12:54:12;97784.78;;;2.88;78.42
73429;BME280;61643;49.564;17.412;2022-12-07T12:56:51;97790.50;;;2.91;80.18
73429;BME280;61643;49.564;17.412;2022-12-07T12:59:31;97793.72;;;2.93;78.33
73429;BME280;61643;49.564;17.412;2022-12-07T13:02:26;97794.78;;;2.92;80.56
73429;BME280;61643;49.564;17.412;2022-12-07T13:15:42;97792.13;;;2.92;82.02
73429;BME280;61643;49.564;17.412;2022-12-07T13:21:02;97797.81;;;2.96;83.21
73429;BME280;61643;49.564;17.412;2022-12-07T13:26:35;97800.16;;;3.04;83.78
73429;BME280;61643;49.564;17.412;2022-12-07T13:29:13;97796.28;;;3.07;82.90
73429;BME280;61643;49.564;17.412;2022-12-07T13:31:43;97803.19;;;3.08;83.72
73429;BME280;61643;49.564;17.412;2022-12-07T13:36:55;97802.56;;;3.12;82.73
73429;BME280;61643;49.564;17.412;2022-12-07T13:39:23;97805.00;;;3.14;83.12
73429;BME280;61643;49.564;17.412;2022-12-07T13:41:52;97802.41;;;3.07;82.64
73429;BME280;61643;49.564;17.412;2022-12-07T13:44:19;97805.28;;;3.06;83.00
73429;BME280;61643;49.564;17.412;2022-12-07T13:46:59;97806.31;;;3.05;83.05
73429;BME280;61643;49.564;17.412;2022-12-07T13:49:27;97804.91;;;3.02;83.60
73429;BME280;61643;49.564;17.412;2022-12-07T13:51:54;97798.19;;;3.00;83.13
73429;BME280;61643;49.564;17.412;2022-12-07T13:54:30;97807.69;;;2.89;83.88
73429;BME280;61643;49.564;17.412;2022-12-07T13:56:55;97810.13;;;2.90;84.29
73429;BME280;61643;49.564;17.412;2022-12-07T13:59:23;97812.19;;;2.88;83.17
73429;BME280;61643;49.564;17.412;2022-12-07T14:01:51;97811.81;;;2.85;84.49
73429;BME280;61643;49.564;17.412;2022-12-07T14:06:50;97813.91;;;2.76;84.82
73429;BME280;61643;49.564;17.412;2022-12-07T14:09:21;97816.00;;;2.74;85.31
73429;BME280;61643;49.564;17.412;2022-12-07T14:11:48;97820.06;;;2.77;86.79
73429;BME280;61643;49.564;17.412;2022-12-07T14:14:19;97822.06;;;2.81;85.54
73429;BME280;61643;49.564;17.412;2022-12-07T14:16:56;97817.97;;;2.79;85.12
73429;BME280;61643;49.564;17.412;2022-12-07T14:22:08;97828.59;;;2.79;85.52
73429;BME280;61643;49.564;17.412;2022-12-07T14:24:43;97823.78;;;2.69;85.07
73429;BME280;61643;49.564;17.412;2022-12-07T14:27:23;97831.16;;;2.67;85.61
73429;BME280;61643;49.564;17.412;2022-12-07T14:29:51;97827.47;;;2.68;87.41
73429;BME280;61643;49.564;17.412;2022-12-07T14:32:25;97820.31;;;2.69;86.08
73429;BME280;61643;49.564;17.412;2022-12-07T14:35:11;97821.00;;;2.58;86.53
73429;BME280;61643;49.564;17.412;2022-12-07T14:37:38;97814.41;;;2.67;86.26
73429;BME280;61643;49.564;17.412;2022-12-07T14:40:04;97817.06;;;2.67;86.50
73429;BME280;61643;49.564;17.412;2022-12-07T14:42:32;97813.66;;;2.60;86.43
73429;BME280;61643;49.564;17.412;2022-12-07T14:44:58;97812.97;;;2.64;86.74
73429;BME280;61643;49.564;17.412;2022-12-07T14:47:25;97819.97;;;2.59;87.72
73429;BME280;61643;49.564;17.412;2022-12-07T14:49:50;97817.91;;;2.61;87.82
73429;BME280;61643;49.564;17.412;2022-12-07T14:52:28;97824.22;;;2.66;87.73
73429;BME280;61643;49.564;17.412;2022-12-07T14:54:53;97824.22;;;2.66;88.20
73429;BME280;61643;49.564;17.412;2022-12-07T14:57:19;97829.91;;;2.70;87.65
73429;BME280;61643;49.564;17.412;2022-12-07T14:59:44;97821.78;;;2.65;87.08
73429;BME280;61643;49.564;17.412;2022-12-07T15:02:14;97815.81;;;2.69;87.68
73429;BME280;61643;49.564;17.412;2022-12-07T15:04:40;97820.53;;;2.67;88.45
73429;BME280;61643;49.564;17.412;2022-12-07T15:07:10;97818.97;;;2.60;88.17